Time;durP1;ratioP1;P1;durP2;ratioP2;P2;SDS_P1;SDS_P2;PMS_P1;PMS_P2;Temp;Humidity;BMP_temperature;BMP_pressure;BME280_temperature;BME280_humidity;BME280_pressure;Samples;Min_cycle;Max_cycle;Signal;HPM_P1;HPM_P2
2022/04/06 00:02:11;;;;;;;10.35;3.05;;;5.00;99.90;;;3.54;100.00;99574.56;4986884;28;20105;-78
2022/04/06 00:04:37;;;;;;;9.75;2.75;;;5.00;99.90;;;3.56;100.00;99576.22;4983554;28;20509;-78
2022/04/06 00:07:04;;;;;;;13.48;3.20;;;5.00;99.90;;;3.56;100.00;99564.97;4992501;28;20488;-78
2022/04/06 00:09:30;;;;;;;6.32;2.45;;;5.00;99.90;;;3.58;100.00;99570.97;4991418;28;20381;-78
2022/04/06 00:11:56;;;;;;;6.82;2.30;;;5.00;99.90;;;3.58;100.00;99565.75;4990610;28;20088;-78
2022/04/06 00:14:22;;;;;;;7.63;2.40;;;5.00;99.90;;;3.61;100.00;99563.06;4989832;28;20046;-78
2022/04/06 00:16:49;;;;;;;5.03;2.17;;;5.10;99.90;;;3.61;100.00;99563.91;4973842;28;20030;-78
2022/04/06 00:19:15;;;;;;;6.00;2.47;;;5.10;99.90;;;3.62;100.00;99564.75;4990349;28;20038;-78
2022/04/06 00:21:41;;;;;;;4.65;2.20;;;5.10;99.90;;;3.60;100.00;99562.19;4984089;28;20030;-78
2022/04/06 00:24:07;;;;;;;6.25;2.17;;;5.00;99.90;;;3.60;100.00;99564.78;4988577;28;20134;-78
2022/04/06 00:26:35;;;;;;;5.57;2.63;;;5.00;99.90;;;3.60;100.00;99564.78;5014561;28;20030;-78
2022/04/06 00:29:01;;;;;;;8.63;2.15;;;5.10;99.90;;;3.61;100.00;99557.84;4989082;28;20026;-78
2022/04/06 00:31:27;;;;;;;10.77;2.30;;;5.10;99.90;;;3.60;100.00;99566.53;4965058;28;20390;-77
2022/04/06 00:33:53;;;;;;;4.10;2.00;;;5.10;99.90;;;3.63;100.00;99550.84;5003641;28;20030;-78
2022/04/06 00:36:20;;;;;;;4.45;2.35;;;5.00;99.90;;;3.63;100.00;99556.03;4988189;28;20026;-78
2022/04/06 00:38:45;;;;;;;6.18;2.35;;;5.00;99.90;;;3.63;100.00;99551.69;4987877;28;20091;-78
2022/04/06 00:41:11;;;;;;;6.00;1.73;;;5.10;99.90;;;3.65;100.00;99549.00;4996544;28;20406;-78
2022/04/06 00:43:37;;;;;;;6.03;2.83;;;5.10;99.90;;;3.67;100.00;99547.19;4992284;28;20037;-78
2022/04/06 00:46:03;;;;;;;7.75;2.30;;;5.10;99.90;;;3.67;100.00;99545.44;4984635;28;20104;-78
2022/04/06 00:48:32;;;;;;;8.55;2.58;;;5.10;99.90;;;3.70;100.00;99549.69;4985671;28;20105;-78
2022/04/06 00:50:58;;;;;;;7.32;2.35;;;5.10;99.90;;;3.69;100.00;99535.84;4987585;28;20027;-77
2022/04/06 00:53:25;;;;;;;6.32;3.00;;;5.10;99.90;;;3.72;100.00;99539.22;4999974;28;20509;-78
2022/04/06 00:55:51;;;;;;;6.85;2.20;;;5.10;99.90;;;3.73;100.00;99533.94;4988490;28;20045;-77
2022/04/06 00:58:18;;;;;;;11.35;2.50;;;5.10;99.90;;;3.74;100.00;99533.06;4987830;28;20775;-78
2022/04/06 01:00:44;;;;;;;4.85;2.45;;;5.10;99.90;;;3.74;100.00;99524.38;4977257;28;20557;-77
2022/04/06 01:03:10;;;;;;;5.78;2.40;;;5.20;99.90;;;3.71;100.00;99527.94;4980287;28;20034;-77
2022/04/06 01:05:36;;;;;;;9.25;2.58;;;5.10;99.90;;;3.72;100.00;99529.66;4978826;28;20106;-77
2022/04/06 01:08:02;;;;;;;9.50;3.05;;;5.10;99.90;;;3.71;100.00;99530.53;4995237;28;20028;-77
2022/04/06 01:10:29;;;;;;;5.43;2.13;;;5.10;99.90;;;3.68;100.00;99531.50;4988243;28;20061;-78
2022/04/06 01:12:56;;;;;;;5.53;2.08;;;5.10;99.90;;;3.67;100.00;99519.41;4987695;28;20044;-77
2022/04/06 01:15:24;;;;;;;6.38;2.47;;;5.10;99.90;;;3.65;100.00;99517.75;4988890;28;20530;-77
2022/04/06 01:17:50;;;;;;;3.47;1.88;;;5.10;99.90;;;3.66;100.00;99522.06;4960756;28;20030;-78
2022/04/06 01:20:16;;;;;;;3.40;2.10;;;5.10;99.90;;;3.65;100.00;99517.75;5003060;28;20032;-78
2022/04/06 01:22:42;;;;;;;6.00;2.42;;;5.10;99.90;;;3.63;100.00;99522.19;4986940;28;20069;-78
2022/04/06 01:25:09;;;;;;;7.88;2.38;;;5.10;99.90;;;3.65;100.00;99517.75;4990223;28;20037;-78
2022/04/06 01:27:35;;;;;;;6.15;2.63;;;5.10;99.90;;;3.65;100.00;99517.75;4962306;28;20034;-78
2022/04/06 01:30:02;;;;;;;7.28;2.20;;;5.10;99.90;;;3.61;100.00;99517.03;4979146;28;20076;-78
2022/04/06 01:32:36;;;;;;;6.05;2.33;;;5.00;99.90;;;3.61;100.00;99513.59;4995766;28;20140;-78
2022/04/06 01:35:06;;;;;;;9.65;2.42;;;5.10;99.90;;;3.60;100.00;99512.72;4974072;28;20041;-78
2022/04/06 01:37:36;;;;;;;9.15;2.58;;;5.10;99.90;;;3.61;100.00;99505.78;4985571;28;20021;-78
2022/04/06 01:40:07;;;;;;;8.60;2.25;;;5.00;99.90;;;3.60;100.00;99501.47;4976141;28;20546;-78
2022/04/06 01:42:33;;;;;;;5.65;2.38;;;5.00;99.90;;;3.60;100.00;99506.69;4972474;28;22206;-78
2022/04/06 01:45:06;;;;;;;9.68;2.28;;;5.00;99.90;;;3.58;100.00;99500.69;4938445;28;20103;-78
2022/04/06 01:47:32;;;;;;;4.80;2.10;;;5.00;99.90;;;3.59;100.00;99505.84;4990499;28;20025;-78
2022/04/06 01:52:46;;;;;;;4.97;2.40;;;5.00;99.90;;;3.62;100.00;99504.88;4974046;28;20488;-78
2022/04/06 01:55:15;;;;;;;5.88;1.80;;;5.00;99.90;;;3.64;100.00;99500.44;4977261;28;20168;-78
2022/04/06 01:57:42;;;;;;;7.50;2.38;;;5.00;99.90;;;3.63;100.00;99497.00;4994767;28;20033;-78
2022/04/06 02:00:16;;;;;;;6.18;2.25;;;5.00;99.90;;;3.66;100.00;99501.25;4987561;28;21034;-78
2022/04/06 02:02:50;;;;;;;6.65;1.95;;;5.00;99.90;;;3.67;100.00;99493.38;4966646;28;20029;-79
2022/04/06 02:05:18;;;;;;;9.15;2.80;;;5.10;99.90;;;3.66;100.00;99489.06;4965451;28;20108;-78
2022/04/06 02:07:49;;;;;;;6.68;2.13;;;5.10;99.90;;;3.66;100.00;99499.47;4958760;28;20013;-78
2022/04/06 02:10:17;;;;;;;7.70;2.55;;;5.10;99.90;;;3.67;100.00;99492.50;4985723;28;20036;-78
2022/04/06 02:12:43;;;;;;;7.90;2.20;;;5.10;99.90;;;3.66;100.00;99483.03;4962483;28;20061;-78
2022/04/06 02:15:12;;;;;;;11.32;3.40;;;5.10;99.90;;;3.60;100.00;99483.25;4947082;28;20045;-77
2022/04/06 02:17:40;;;;;;;8.30;2.75;;;5.00;99.90;;;3.56;100.00;99476.47;4961856;28;20425;-78
2022/04/06 02:20:06;;;;;;;10.48;3.67;;;5.00;99.90;;;3.57;100.00;99472.97;4966077;28;20092;-78
2022/04/06 02:22:32;;;;;;;9.68;2.80;;;5.00;99.90;;;3.56;100.00;99476.47;4989063;28;20089;-78
2022/04/06 02:24:58;;;;;;;6.43;2.47;;;5.00;99.90;;;3.52;100.00;99472.28;4973231;28;20045;-78
2022/04/06 02:27:26;;;;;;;5.20;2.70;;;4.90;99.90;;;3.47;100.00;99473.28;4980872;28;20032;-78
2022/04/06 02:29:52;;;;;;;8.82;2.35;;;4.90;99.90;;;3.48;100.00;99474.16;4967691;28;20039;-78
2022/04/06 02:32:18;;;;;;;9.80;2.80;;;4.90;99.90;;;3.44;100.00;99464.78;4974316;28;20172;-78
2022/04/06 02:34:44;;;;;;;3.95;2.80;;;4.90;99.90;;;3.43;100.00;99468.25;4981233;28;20034;-78
2022/04/06 02:37:11;;;;;;;6.18;2.67;;;4.80;99.90;;;3.37;100.00;99464.16;4955652;28;20108;-78
2022/04/06 02:39:37;;;;;;;5.00;2.40;;;4.80;99.90;;;3.35;100.00;99457.28;4980640;28;20530;-78
2022/04/06 02:42:07;;;;;;;8.50;2.25;;;4.80;99.90;;;3.32;100.00;99458.25;5024133;28;20085;-78
2022/04/06 02:44:34;;;;;;;7.65;2.40;;;4.80;99.90;;;3.28;100.00;99464.47;4962026;28;20022;-77
2022/04/06 02:47:00;;;;;;;10.80;2.25;;;4.80;99.90;;;3.28;100.00;99465.34;4926227;28;20100;-78
2022/04/06 02:49:26;;;;;;;6.45;2.33;;;4.80;99.90;;;3.25;100.00;99460.22;5003066;28;20459;-78
2022/04/06 02:51:52;;;;;;;12.43;2.10;;;4.70;99.90;;;3.18;100.00;99452.72;4995196;28;20112;-78
2022/04/06 02:54:18;;;;;;;8.15;2.85;;;4.70;99.90;;;3.18;100.00;99452.72;4972921;28;20034;-78
2022/04/06 02:56:46;;;;;;;7.68;2.28;;;4.70;99.90;;;3.08;100.00;99453.03;4970945;28;20017;-77
2022/04/06 02:59:13;;;;;;;6.82;2.00;;;4.60;99.90;;;3.10;100.00;99450.41;4957526;28;20024;-78
2022/04/06 03:01:38;;;;;;;6.68;2.05;;;4.60;99.90;;;3.07;100.00;99448.75;4946153;28;20037;-78
2022/04/06 03:04:04;;;;;;;2.15;1.15;;;4.50;99.90;;;2.98;100.00;99456.03;4994247;28;20078;-77
2022/04/06 03:06:30;;;;;;;4.53;1.58;;;4.60;99.90;;;3.00;100.00;99438.63;4965990;28;20025;-78
2022/04/06 03:08:56;;;;;;;7.80;1.70;;;4.50;99.90;;;3.00;100.00;99442.09;4996488;28;20083;-78
2022/04/06 03:11:22;;;;;;;3.60;1.23;;;4.50;99.90;;;2.97;100.00;99436.16;4970905;28;20052;-78
2022/04/06 03:13:51;;;;;;;7.28;1.45;;;4.50;99.90;;;3.04;100.00;99441.03;4954359;28;20033;-77
2022/04/06 03:16:17;;;;;;;8.73;1.40;;;4.50;99.90;;;3.00;100.00;99433.41;4943369;28;20045;-78
2022/04/06 03:18:43;;;;;;;5.53;1.38;;;4.50;99.90;;;3.00;100.00;99436.03;4985735;28;20083;-78
2022/04/06 03:21:09;;;;;;;5.72;1.58;;;4.50;99.90;;;2.88;100.00;99427.75;4948425;28;20924;-78
2022/04/06 03:23:35;;;;;;;4.82;1.70;;;4.40;99.90;;;2.93;100.00;99426.75;4967140;28;20532;-77
2022/04/06 03:26:06;;;;;;;11.30;2.33;;;4.50;99.90;;;2.97;100.00;99417.94;4953108;28;20152;-77
2022/04/06 03:28:32;;;;;;;3.88;1.65;;;4.50;99.90;;;3.00;100.00;99410.88;4981631;28;20038;-78
2022/04/06 03:30:58;;;;;;;5.35;2.17;;;4.40;99.90;;;3.02;100.00;99421.22;4952589;28;20042;-78
2022/04/06 03:33:24;;;;;;;6.00;1.88;;;4.50;99.90;;;2.96;100.00;99411.03;4972935;28;20044;-78
2022/04/06 03:35:51;;;;;;;4.03;1.35;;;4.40;99.90;;;2.92;100.00;99412.91;4932959;28;20036;-78
2022/04/06 03:38:17;;;;;;;9.23;1.88;;;4.50;99.90;;;2.98;100.00;99404.88;4945083;28;20037;-78
2022/04/06 03:40:46;;;;;;;3.75;1.15;;;4.40;99.90;;;2.85;100.00;99406.22;5003794;28;20037;-78
2022/04/06 03:43:13;;;;;;;5.97;1.55;;;4.40;99.90;;;2.91;100.00;99399.97;4971956;28;20029;-78
2022/04/06 03:45:39;;;;;;;8.82;1.73;;;4.40;99.90;;;2.86;100.00;99400.97;4972084;28;20044;-78
2022/04/06 03:48:05;;;;;;;4.82;1.23;;;4.40;99.90;;;2.83;100.00;99398.50;4983358;28;20054;-78
2022/04/06 03:50:31;;;;;;;5.25;1.17;;;4.40;99.90;;;2.87;100.00;99399.22;4976738;28;20038;-79
2022/04/06 03:52:58;;;;;;;2.22;1.20;;;4.40;99.90;;;2.83;100.00;99400.22;4938366;28;20368;-78
2022/04/06 03:55:24;;;;;;;3.28;1.20;;;4.40;99.90;;;2.83;100.00;99393.28;4968251;28;20030;-78
2022/04/06 03:57:50;;;;;;;6.90;1.65;;;4.30;99.90;;;2.69;100.00;99390.34;4940797;28;20045;-78
2022/04/06 04:00:19;;;;;;;98.63;38.92;;;4.30;99.90;;;2.67;100.00;99390.38;4933653;28;20033;-79
2022/04/06 04:02:46;;;;;;;5.38;1.90;;;4.30;99.90;;;2.78;100.00;99396.94;4926474;28;20023;-78
2022/04/06 04:05:13;;;;;;;5.75;1.55;;;4.20;99.90;;;2.66;100.00;99386.09;4957030;28;20126;-79
2022/04/06 04:07:39;;;;;;;4.75;1.20;;;4.20;99.90;;;2.60;100.00;99390.66;4975583;28;20030;-78
2022/04/06 04:10:10;;;;;;;7.80;1.48;;;4.20;99.90;;;2.62;100.00;99392.31;4957861;28;20076;-77
2022/04/06 04:12:37;;;;;;;7.57;1.38;;;4.20;99.90;;;2.64;100.00;99393.09;4969451;28;22541;-78
2022/04/06 04:15:03;;;;;;;3.20;1.23;;;4.20;99.90;;;2.65;100.00;99391.34;4971033;28;20013;-78
2022/04/06 04:17:29;;;;;;;6.38;1.40;;;4.20;99.90;;;2.53;100.00;99384.84;4985968;28;20013;-78
2022/04/06 04:19:58;;;;;;;4.38;1.67;;;4.20;99.90;;;2.62;100.00;99391.47;4950077;28;20114;-78
2022/04/06 04:22:26;;;;;;;4.63;1.60;;;4.20;99.90;;;2.69;100.00;99389.50;4940741;28;21142;-78
2022/04/06 04:24:52;;;;;;;9.18;1.80;;;4.20;99.90;;;2.65;100.00;99381.78;4966875;28;20506;-77
2022/04/06 04:27:18;;;;;;;3.90;1.80;;;4.20;99.90;;;2.62;100.00;99383.66;4979420;28;20029;-77
2022/04/06 04:29:45;;;;;;;5.68;1.85;;;4.20;99.90;;;2.65;100.00;99384.38;4986791;28;20025;-77
2022/04/06 04:32:20;;;;;;;4.18;1.60;;;4.10;99.90;;;2.50;100.00;99377.13;4975924;28;20119;-77
2022/04/06 04:34:46;;;;;;;7.53;1.63;;;4.20;99.90;;;2.55;100.00;99367.44;4977980;28;20449;-77
2022/04/06 04:37:12;;;;;;;4.20;1.48;;;4.10;99.90;;;2.48;100.00;99371.13;4978905;28;20033;-78
2022/04/06 04:39:38;;;;;;;5.80;1.70;;;4.10;99.90;;;2.47;100.00;99374.66;4964672;28;20044;-78
2022/04/06 04:42:04;;;;;;;4.72;1.42;;;4.10;99.90;;;2.43;100.00;99375.66;4979394;28;20065;-77
2022/04/06 04:44:34;;;;;;;10.18;1.70;;;4.10;99.90;;;2.50;100.00;99379.72;4968111;28;20409;-77
2022/04/06 04:47:00;;;;;;;3.00;1.30;;;4.00;99.90;;;2.42;100.00;99376.56;4934054;28;20047;-78
2022/04/06 04:49:26;;;;;;;3.03;0.40;;;4.00;99.90;;;2.09;100.00;99369.00;5003338;28;20097;-77
2022/04/06 04:51:52;;;;;;;2.25;1.05;;;3.90;99.90;;;2.21;100.00;99367.75;4978230;28;20050;-78
2022/04/06 04:54:23;;;;;;;5.10;1.13;;;3.90;99.90;;;2.29;100.00;99364.88;4965213;28;20513;-78
2022/04/06 04:56:52;;;;;;;14.98;6.97;;;3.90;99.90;;;2.26;100.00;99363.25;4972362;28;20030;-78
2022/04/06 04:59:19;;;;;;;40.60;16.92;;;3.90;99.90;;;2.19;100.00;99360.00;4959310;28;20028;-78
2022/04/06 05:01:45;;;;;;;49.08;16.15;;;3.80;99.90;;;2.16;100.00;99352.34;4989416;28;20063;-78
2022/04/06 05:04:11;;;;;;;57.50;19.40;;;3.80;99.90;;;2.18;100.00;99353.13;4961777;28;20026;-77
2022/04/06 05:06:40;;;;;;;29.25;10.55;;;;;;;2.22;100.00;99352.09;4965804;28;20029;-78
2022/04/06 05:09:06;;;;;;;33.83;11.45;;;3.90;99.90;;;2.29;100.00;99360.56;4980672;28;20040;-77
2022/04/06 05:11:32;;;;;;;32.65;12.68;;;3.90;99.90;;;2.33;100.00;99354.34;5006921;28;20058;-78
2022/04/06 05:13:57;;;;;;;31.63;13.88;;;3.90;99.90;;;2.28;100.00;99350.22;4977325;28;20578;-77
2022/04/06 05:16:23;;;;;;;26.70;12.25;;;3.90;99.90;;;2.30;100.00;99349.25;4997238;28;20052;-77
2022/04/06 05:18:49;;;;;;;23.92;9.50;;;3.90;99.90;;;2.18;100.00;99344.47;4955594;28;20108;-78
2022/04/06 05:21:18;;;;;;;20.23;8.63;;;3.90;99.90;;;2.17;100.00;99346.22;4960960;28;20163;-77
2022/04/06 05:23:47;;;;;;;14.25;6.00;;;3.90;99.90;;;2.15;100.00;99336.81;4952649;28;20030;-77
2022/04/06 05:26:13;;;;;;;9.18;4.25;;;3.90;99.90;;;2.30;100.00;99333.66;4962195;28;20037;-78
2022/04/06 05:28:39;;;;;;;6.10;2.72;;;3.90;99.90;;;2.36;100.00;99333.47;4972873;28;20050;-78
2022/04/06 05:31:05;;;;;;;5.38;2.17;;;4.00;99.90;;;2.29;100.00;99328.53;4988457;28;20087;-77
2022/04/06 05:33:33;;;;;;;5.13;2.72;;;3.90;99.90;;;2.33;100.00;99325.75;4958532;28;20256;-77
2022/04/06 05:36:02;;;;;;;5.57;2.83;;;4.00;99.90;;;2.34;100.00;99330.06;4962190;28;20041;-77
2022/04/06 05:38:34;;;;;;;12.02;3.75;;;3.90;99.90;;;2.37;100.00;99321.31;4954342;28;20414;-77
2022/04/06 05:41:02;;;;;;;9.88;3.90;;;4.00;99.90;;;2.42;100.00;99322.03;4986261;28;20045;-77
2022/04/06 05:43:29;;;;;;;9.07;3.97;;;4.00;99.90;;;2.42;100.00;99324.63;4969850;28;20041;-78
2022/04/06 05:45:55;;;;;;;8.30;3.30;;;4.10;99.90;;;2.45;100.00;99320.13;4995028;28;20518;-77
2022/04/06 05:48:21;;;;;;;11.27;3.75;;;4.00;99.90;;;2.41;100.00;99317.72;4977485;28;20037;-77
2022/04/06 05:50:47;;;;;;;6.45;4.18;;;4.10;99.90;;;2.53;100.00;99311.22;4983320;28;20030;-77
2022/04/06 05:53:14;;;;;;;8.77;3.85;;;4.10;99.90;;;2.59;100.00;99313.59;4964921;28;20037;-78
2022/04/06 05:55:42;;;;;;;9.02;4.45;;;4.20;99.90;;;2.64;100.00;99315.13;4973772;28;20033;-78
2022/04/06 05:58:10;;;;;;;10.07;4.13;;;4.20;99.90;;;2.66;100.00;99312.47;4955123;28;20029;-77
2022/04/06 06:00:36;;;;;;;8.43;3.60;;;4.20;99.90;;;2.55;100.00;99312.88;4944819;28;20436;-78
2022/04/06 06:03:02;;;;;;;8.38;4.32;;;4.20;99.90;;;2.62;100.00;99310.91;4954684;28;20046;-77
2022/04/06 06:05:28;;;;;;;9.60;3.78;;;4.30;99.90;;;2.70;100.00;99306.28;4987658;28;20481;-78
2022/04/06 06:07:54;;;;;;;8.35;3.88;;;4.30;99.90;;;2.78;100.00;99313.75;4966407;28;20029;-77
2022/04/06 06:10:22;;;;;;;8.40;3.83;;;4.40;99.90;;;2.87;100.00;99310.81;4988803;28;20120;-78
2022/04/06 06:12:48;;;;;;;8.20;4.30;;;4.50;99.90;;;2.94;100.00;99322.69;4984025;28;20041;-77
2022/04/06 06:15:15;;;;;;;9.23;4.20;;;4.50;99.90;;;3.02;100.00;99315.47;4985335;28;20052;-77
2022/04/06 06:17:41;;;;;;;7.75;4.00;;;4.60;99.90;;;3.14;100.00;99321.94;4962687;28;20017;-78
2022/04/06 06:20:08;;;;;;;13.02;4.60;;;4.70;99.90;;;3.23;100.00;99312.94;4963086;28;20128;-77
2022/04/06 06:22:35;;;;;;;10.73;4.53;;;4.70;99.90;;;3.23;100.00;99315.53;4979143;28;20036;-77
2022/04/06 06:25:02;;;;;;;12.93;5.18;;;4.80;99.90;;;3.24;100.00;99312.00;4948867;28;20092;-78
2022/04/06 06:27:28;;;;;;;12.73;5.10;;;4.80;99.90;;;3.33;100.00;99321.22;4951413;28;20033;-77
2022/04/06 06:29:54;;;;;;;11.68;5.70;;;4.80;99.90;;;3.42;100.00;99324.31;4952785;28;20117;-77
2022/04/06 06:32:20;;;;;;;16.48;6.20;;;4.90;99.90;;;3.45;100.00;99312.91;4995131;28;22598;-77
2022/04/06 06:34:45;;;;;;;19.27;9.60;;;5.00;99.90;;;3.57;100.00;99315.03;4947652;28;20065;-77
2022/04/06 06:37:12;;;;;;;12.80;6.53;;;5.00;99.90;;;3.64;100.00;99307.81;4965755;28;20802;-77
2022/04/06 06:39:38;;;;;;;20.25;7.85;;;5.10;99.90;;;3.75;100.00;99310.00;4984133;28;20083;-77
2022/04/06 06:42:05;;;;;;;18.20;8.65;;;5.20;99.90;;;3.86;100.00;99305.19;4971280;28;20041;-78
2022/04/06 06:44:34;;;;;;;19.48;9.02;;;5.30;99.90;;;3.97;100.00;99309.94;4958481;28;20072;-78
2022/04/06 06:47:00;;;;;;;22.25;8.43;;;5.40;99.90;;;4.11;100.00;99312.81;4969380;28;20017;-77
2022/04/06 06:49:27;;;;;;;27.08;9.73;;;5.50;99.90;;;4.24;100.00;99307.94;4998980;28;20022;-77
2022/04/06 06:51:53;;;;;;;21.23;9.63;;;5.60;99.90;;;4.36;100.00;99302.16;4975248;28;20160;-76
2022/04/06 06:54:19;;;;;;;26.48;10.02;;;5.80;99.90;;;4.54;100.00;99303.13;4971219;28;20029;-77
2022/04/06 06:56:45;;;;;;;26.85;10.98;;;5.90;99.90;;;4.68;100.00;99295.50;4993820;28;20040;-76
2022/04/06 06:59:13;;;;;;;32.78;10.52;;;6.00;99.90;;;4.80;100.00;99293.28;4987104;28;20025;-76
2022/04/06 07:01:39;;;;;;;26.88;10.55;;;6.10;99.90;;;4.97;100.00;99293.34;4975434;28;20724;-77
2022/04/06 07:04:07;;;;;;;29.48;11.88;;;6.30;99.90;;;5.25;100.00;99290.28;4988059;28;20030;-76
2022/04/06 07:06:33;;;;;;;21.98;10.35;;;6.50;99.90;;;5.50;100.00;99286.50;4993609;28;20026;-77
2022/04/06 07:08:59;;;;;;;24.67;10.50;;;6.70;99.90;;;5.71;100.00;99279.38;4992744;28;20029;-77
2022/04/06 07:11:25;;;;;;;26.10;11.80;;;6.80;99.90;;;5.85;100.00;99291.72;4968002;28;20066;-77
2022/04/06 07:13:51;;;;;;;28.27;12.13;;;7.00;99.90;;;5.92;100.00;99283.53;4979310;28;20038;-77
2022/04/06 07:16:17;;;;;;;29.33;12.73;;;7.10;99.90;;;6.06;100.00;99275.00;4959099;28;20053;-77
2022/04/06 07:18:43;;;;;;;30.45;13.70;;;7.20;99.90;;;6.18;100.00;99284.00;4956910;28;20033;-77
2022/04/06 07:21:09;;;;;;;28.65;13.65;;;7.40;99.90;;;6.29;100.00;99286.06;4969630;28;20135;-77
2022/04/06 07:23:35;;;;;;;33.85;14.27;;;7.50;99.90;;;6.38;100.00;99275.13;4954678;28;20030;-77
2022/04/06 07:26:01;;;;;;;30.83;14.77;;;7.60;99.90;;;6.49;100.00;99277.16;4970352;28;20559;-77
2022/04/06 07:28:31;;;;;;;37.08;17.23;;;7.70;99.90;;;6.57;100.00;99281.06;4994187;28;20033;-78
2022/04/06 07:30:57;;;;;;;37.13;17.00;;;7.80;99.90;;;6.65;100.00;99272.81;4987256;28;20022;-77
2022/04/06 07:33:23;;;;;;;34.13;17.80;;;7.90;99.90;;;6.74;100.00;99271.47;5001272;28;20040;-77
2022/04/06 07:35:49;;;;;;;41.45;18.40;;;8.00;99.90;;;6.82;100.00;99264.03;4955135;28;20033;-77
2022/04/06 07:38:15;;;;;;;49.88;18.77;;;8.10;99.90;;;6.91;100.00;99260.06;4987780;28;23838;-77
2022/04/06 07:40:42;;;;;;;37.90;17.60;;;8.20;99.90;;;7.02;100.00;99259.47;4968161;28;20116;-77
2022/04/06 07:43:13;;;;;;;42.22;18.73;;;8.30;99.90;;;7.09;100.00;99256.47;4951007;28;20044;-78
2022/04/06 07:45:40;;;;;;;30.65;17.70;;;8.40;99.90;;;7.18;100.00;99255.09;4959196;28;20644;-78
2022/04/06 07:48:06;;;;;;;35.13;18.80;;;8.50;99.90;;;7.24;100.00;99254.75;4946209;28;20021;-77
2022/04/06 07:50:32;;;;;;;31.45;17.95;;;8.50;99.90;;;7.32;100.00;99256.94;4947809;28;20018;-77
2022/04/06 07:52:58;;;;;;;38.08;17.38;;;8.60;99.90;;;7.45;100.00;99255.31;4983337;28;20717;-78
2022/04/06 07:55:29;;;;;;;32.65;17.38;;;8.80;99.90;;;7.67;100.00;99251.47;4966146;28;20032;-78
2022/04/06 07:57:56;;;;;;;31.58;18.38;;;9.00;99.90;;;8.20;100.00;99250.88;4962794;28;20038;-77
2022/04/06 08:00:22;;;;;;;36.70;17.90;;;9.20;99.90;;;8.50;100.00;99260.47;4987597;28;20038;-77
2022/04/06 08:02:50;;;;;;;30.10;16.20;;;9.50;99.90;;;8.69;100.00;99262.81;4957652;28;20029;-77
2022/04/06 08:05:19;;;;;;;25.70;15.55;;;9.70;99.90;;;8.80;100.00;99259.53;4975526;28;20038;-77
2022/04/06 08:07:48;;;;;;;28.23;14.88;;;9.70;99.90;;;8.72;100.00;99253.91;4979276;28;20017;-77
2022/04/06 08:10:16;;;;;;;26.70;14.85;;;9.80;99.90;;;8.58;100.00;99254.78;4989471;28;20082;-77
2022/04/06 08:12:43;;;;;;;25.83;14.85;;;9.70;99.90;;;8.47;100.00;99254.59;4991900;28;20094;-79
2022/04/06 08:15:12;;;;;;;23.52;13.93;;;9.60;99.90;;;8.28;100.00;99254.84;4990340;28;20105;-77
2022/04/06 08:17:45;;;;;;;26.40;14.65;;;9.60;99.90;;;8.24;100.00;99259.41;4970368;28;20018;-78
2022/04/06 08:20:16;;;;;;;25.98;13.85;;;9.60;99.90;;;8.27;100.00;99255.75;4978862;28;20109;-78
2022/04/06 08:22:47;;;;;;;27.45;13.77;;;9.60;99.90;;;8.40;100.00;99252.34;4930438;28;20097;-79
2022/04/06 08:25:24;;;;;;;25.52;14.45;;;9.60;99.90;;;8.54;100.00;99253.28;4965804;28;20393;-77
2022/04/06 08:27:50;;;;;;;25.10;13.75;;;9.70;99.90;;;8.59;100.00;99257.28;4983142;28;20048;-78
2022/04/06 08:30:22;;;;;;;24.77;14.00;;;9.90;99.90;;;8.78;100.00;99243.88;4959899;28;20084;-77
2022/04/06 08:32:49;;;;;;;23.25;13.55;;;10.00;99.90;;;8.96;100.00;99238.41;4970369;28;20032;-77
2022/04/06 08:35:17;;;;;;;25.10;13.63;;;10.10;99.90;;;8.88;100.00;99252.03;4966750;28;20037;-78
2022/04/06 08:37:43;;;;;;;23.35;13.90;;;10.00;99.90;;;8.79;100.00;99256.06;4964330;28;20038;-78
2022/04/06 08:40:11;;;;;;;22.75;14.43;;;10.10;99.90;;;8.90;100.00;99249.28;4993191;28;20054;-77
2022/04/06 08:42:37;;;;;;;23.77;15.00;;;10.20;99.90;;;9.01;100.00;99244.22;5017934;28;20065;-78
2022/04/06 08:45:06;;;;;;;24.65;15.38;;;10.20;99.90;;;8.99;100.00;99246.09;4969882;28;20022;-77
2022/04/06 08:47:33;;;;;;;28.15;15.48;;;10.20;99.90;;;8.97;100.00;99240.94;4975082;28;20057;-78
2022/04/06 08:50:03;;;;;;;28.45;16.63;;;10.20;99.90;;;8.98;100.00;99236.53;4974231;28;20034;-78
2022/04/06 08:52:35;;;;;;;26.52;16.05;;;10.30;99.90;;;9.27;100.00;99242.53;4973926;28;20044;-77
2022/04/06 08:55:02;;;;;;;27.70;17.10;;;10.40;99.90;;;9.47;100.00;99243.84;4969551;28;20050;-78
2022/04/06 08:57:33;;;;;;;26.80;16.48;;;10.60;99.90;;;9.61;100.00;99245.56;4986013;28;20113;-78
2022/04/06 09:00:01;;;;;;;37.25;17.52;;;10.70;99.90;;;9.65;100.00;99247.91;4973087;28;20037;-77
2022/04/06 09:02:28;;;;;;;29.48;17.63;;;10.80;99.90;;;9.85;100.00;99240.47;4971861;28;20037;-78
2022/04/06 09:04:55;;;;;;;24.30;16.52;;;10.90;99.90;;;9.90;100.00;99243.63;4982384;28;24916;-77
2022/04/06 09:07:24;;;;;;;32.22;17.17;;;11.00;99.90;;;10.00;100.00;99243.84;5024961;28;20056;-77
2022/04/06 09:09:55;;;;;;;33.47;17.58;;;11.10;99.90;;;10.12;100.00;99234.28;4991827;28;20029;-78
2022/04/06 09:12:25;;;;;;;31.30;16.45;;;11.20;99.90;;;10.02;100.00;99228.78;4956111;28;20403;-77
2022/04/06 09:15:12;;;;;;;27.33;17.00;;;11.20;99.90;;;9.92;100.00;99227.75;4975521;28;20084;-77
2022/04/06 09:17:50;;;;;;;29.90;16.35;;;11.10;99.90;;;9.73;100.00;99228.16;4998273;28;20024;-77
2022/04/06 09:20:26;;;;;;;28.73;16.73;;;11.00;99.90;;;9.62;100.00;99221.81;4984902;28;20174;-78
2022/04/06 09:22:52;;;;;;;32.10;16.50;;;10.90;99.90;;;9.49;100.00;99226.22;4987460;28;20059;-78
2022/04/06 09:25:21;;;;;;;25.95;15.57;;;10.80;99.90;;;9.40;100.00;99227.66;4962933;28;20029;-77
2022/04/06 09:27:47;;;;;;;27.05;17.08;;;10.80;99.90;;;9.45;100.00;99228.19;4993969;28;20080;-77
2022/04/06 09:30:14;;;;;;;30.48;16.67;;;10.80;99.90;;;9.50;100.00;99227.88;4990222;28;20036;-77
2022/04/06 09:32:41;;;;;;;37.35;17.98;;;10.80;99.90;;;9.52;100.00;99228.63;4978353;28;20030;-77
2022/04/06 09:35:36;;;;;;;30.35;16.60;;;10.80;99.90;;;9.43;100.00;99231.88;4946257;28;20033;-77
2022/04/06 09:38:10;;;;;;;30.67;16.90;;;10.80;99.90;;;9.40;100.00;99221.56;5001981;28;20036;-77
2022/04/06 09:40:37;;;;;;;33.17;16.52;;;10.70;99.90;;;9.38;100.00;99220.81;4998087;28;20050;-77
2022/04/06 09:43:04;;;;;;;34.53;17.77;;;10.70;99.90;;;9.38;100.00;99215.56;5016348;28;20064;-77
2022/04/06 09:48:15;;;;;;;30.20;16.08;;;10.60;99.90;;;9.30;100.00;99220.47;4951288;28;20055;-77
2022/04/06 09:50:55;;;;;;;32.15;17.58;;;10.60;99.90;;;9.28;100.00;99217.09;4966140;28;20142;-79
2022/04/06 09:53:27;;;;;;;29.75;17.17;;;10.60;99.90;;;9.29;100.00;99224.91;4991800;28;20043;-77
2022/04/06 09:55:56;;;;;;;31.98;17.48;;;10.60;99.90;;;9.32;100.00;99219.44;4987601;28;20072;-78
2022/04/06 09:58:26;;;;;;;32.08;17.35;;;10.60;99.90;;;9.48;100.00;99214.03;4958106;28;23263;-78
2022/04/06 10:00:53;;;;;;;31.30;16.20;;;10.80;99.90;;;9.83;100.00;99210.81;4946563;28;20072;-78
2022/04/06 10:03:21;;;;;;;28.20;16.35;;;11.00;99.90;;;10.10;100.00;99207.25;4983830;28;20110;-77
2022/04/06 10:05:52;;;;;;;27.88;15.80;;;11.10;99.90;;;10.05;100.00;99213.66;4965413;28;20050;-77
2022/04/06 10:08:21;;;;;;;28.17;16.25;;;11.20;99.90;;;9.95;99.10;99223.13;4960746;28;20037;-77
2022/04/06 10:10:50;;;;;;;31.77;15.95;;;11.20;99.90;;;9.89;98.42;99214.81;4985191;28;20120;-77
2022/04/06 10:13:21;;;;;;;25.80;15.38;;;11.20;99.90;;;9.79;98.62;99222.50;4994708;28;20044;-77
2022/04/06 10:15:54;;;;;;;28.02;16.75;;;11.10;99.90;;;9.73;99.83;99212.38;4962111;28;20565;-77
2022/04/06 10:18:26;;;;;;;33.28;15.98;;;11.00;99.90;;;9.61;100.00;99220.16;4977665;28;20037;-77
2022/04/06 10:21:29;;;;;;;31.35;17.38;;;11.00;99.90;;;9.58;100.00;99219.50;4989462;28;20038;-77
2022/04/06 10:24:29;;;;;;;31.63;17.20;;;10.90;99.90;;;9.53;100.00;99221.59;4973631;28;20030;-77
2022/04/06 10:27:22;;;;;;;28.70;15.25;;;10.90;99.90;;;9.48;100.00;99219.28;4979826;28;20071;-77
2022/04/06 10:30:10;;;;;;;31.88;16.00;;;10.80;99.90;;;9.45;100.00;99219.47;5005420;28;20034;-77